Time;durP1;ratioP1;P1;durP2;ratioP2;P2;SDS_P1;SDS_P2;PMS_P1;PMS_P2;Temp;Humidity;BMP_temperature;BMP_pressure;BME280_temperature;BME280_humidity;BME280_pressure;Samples;Min_cycle;Max_cycle;Signal;HPM_P1;HPM_P2
2021/06/30 00:05:30;;;;;;;8.90;8.10;;;16.90;99.90;;;;;;5156987;23;20497;-92
2021/06/30 00:07:56;;;;;;;12.40;11.30;;;19.70;99.90;;;;;;4978688;28;20465;-93
2021/06/30 00:10:41;;;;;;;11.30;10.40;;;16.00;99.90;;;;;;4978430;29;20438;-93
2021/06/30 00:13:07;;;;;;;9.47;8.87;;;15.20;99.90;;;;;;4976889;29;20422;-91
2021/06/30 00:15:45;;;;;;;9.33;8.60;;;16.70;99.90;;;;;;4976305;28;20411;-91
2021/06/30 00:18:14;;;;;;;9.90;9.17;;;16.70;99.90;;;;;;4980622;28;20477;-92
2021/06/30 00:29:39;;;;;;;12.70;11.60;;;16.40;99.90;;;;;;5522816;23;20473;-93
2021/06/30 00:35:18;;;;;;;13.03;11.83;;;18.90;99.90;;;;;;4970045;28;20439;-92
2021/06/30 00:43:27;;;;;;;8.80;8.20;;;16.50;99.90;;;;;;5164967;23;20485;-92
2021/06/30 00:45:53;;;;;;;10.97;10.23;;;19.50;99.90;;;;;;4962793;28;20446;-92
2021/06/30 00:48:30;;;;;;;13.10;12.03;;;16.40;99.90;;;;;;4980037;28;20433;-93
2021/06/30 00:54:11;;;;;;;13.20;12.00;;;16.40;99.90;;;;;;5780741;23;20473;-93
2021/06/30 03:48:45;;;;;;;13.77;12.57;;;19.40;99.90;;;;;;4962903;29;20499;-94
2021/06/30 04:00:11;;;;;;;14.07;12.80;;;16.30;98.10;;;;;;5664808;23;20469;-94
2021/06/30 04:13:46;;;;;;;13.40;12.05;;;16.20;99.20;;;;;;5303968;23;20443;31
2021/06/30 04:30:11;;;;;;;15.47;11.17;;;16.10;99.90;;;;;;3021215;23;20331;-93
2021/06/30 04:32:37;;;;;;;14.00;12.13;;;16.10;98.30;;;;;;4951321;29;20497;-95
2021/06/30 04:35:08;;;;;;;10.97;10.13;;;16.00;99.30;;;;;;4967289;28;20434;-93
2021/06/30 04:37:36;;;;;;;10.30;9.30;;;16.10;98.60;;;;;;4969656;28;20513;-93
2021/06/30 04:40:03;;;;;;;10.37;9.47;;;19.30;99.90;;;;;;4971703;28;20419;-93
2021/06/30 04:42:30;;;;;;;8.63;6.60;;;16.10;97.50;;;;;;4969554;28;20432;-94
2021/06/30 04:44:56;;;;;;;9.20;7.87;;;16.40;96.80;;;;;;4952481;28;20414;-93
2021/06/30 04:47:21;;;;;;;7.87;7.17;;;16.20;97.70;;;;;;4968587;28;20462;-89
2021/06/30 04:49:47;;;;;;;7.03;6.63;;;16.10;97.50;;;;;;4968766;28;20233;-94
2021/06/30 04:52:13;;;;;;;7.97;7.47;;;16.10;96.60;;;;;;4969927;28;20171;-94
2021/06/30 04:54:39;;;;;;;7.33;6.27;;;16.30;96.60;;;;;;4972279;28;20187;-88
2021/06/30 04:57:05;;;;;;;5.90;5.50;;;16.10;96.60;;;;;;4972239;28;20470;-94
2021/06/30 04:59:31;;;;;;;7.70;6.67;;;;;;;;;;4973110;28;20430;-91
2021/06/30 05:01:56;;;;;;;6.77;6.27;;;16.30;96.00;;;;;;4954298;29;20175;-94
2021/06/30 05:04:24;;;;;;;6.23;5.73;;;16.30;96.40;;;;;;4969926;28;20477;-91
2021/06/30 05:06:51;;;;;;;5.70;5.33;;;16.40;95.70;;;;;;4970401;28;20170;-92
2021/06/30 05:09:17;;;;;;;7.00;6.40;;;16.40;96.20;;;;;;4970713;28;20422;-94
2021/06/30 05:11:43;;;;;;;4.67;4.30;;;19.10;98.00;;;;;;4970099;28;20473;-91
2021/06/30 05:14:09;;;;;;;4.40;4.20;;;;;;;;;;4971291;28;20183;-91
2021/06/30 05:16:35;;;;;;;5.83;5.40;;;16.50;94.70;;;;;;4973400;28;20186;-95
2021/06/30 05:19:01;;;;;;;4.30;4.00;;;16.50;95.00;;;;;;4971579;28;20473;-93
2021/06/30 05:21:27;;;;;;;4.20;4.10;;;;;;;;;;4973166;28;20189;-95
2021/06/30 05:23:52;;;;;;;4.20;4.10;;;16.50;94.60;;;;;;4956179;29;20173;-92
2021/06/30 05:26:18;;;;;;;4.60;4.40;;;16.50;95.00;;;;;;4972406;28;20478;-89
2021/06/30 05:28:47;;;;;;;5.70;5.13;;;16.60;95.60;;;;;;4974318;28;20181;-95
2021/06/30 05:31:17;;;;;;;4.23;3.90;;;16.50;95.50;;;;;;4974084;28;20458;-96
2021/06/30 05:33:45;;;;;;;4.27;4.07;;;17.60;95.60;;;;;;4954367;29;20437;-90
2021/06/30 05:36:12;;;;;;;4.80;4.60;;;16.70;94.90;;;;;;4955232;29;20414;-92
2021/06/30 05:38:38;;;;;;;3.77;3.67;;;18.60;95.90;;;;;;4969596;28;20462;-92
2021/06/30 05:41:04;;;;;;;5.40;4.70;;;16.80;97.00;;;;;;4969563;28;20418;-94
2021/06/30 05:43:30;;;;;;;5.17;4.60;;;16.90;99.80;;;;;;4970669;28;20432;-93
2021/06/30 05:45:56;;;;;;;4.17;3.97;;;17.00;99.40;;;;;;4973525;28;20175;-89
2021/06/30 05:48:27;;;;;;;4.65;4.40;;;16.60;99.90;;;;;;4628657;28;10000268;-92
2021/06/30 05:50:55;;;;;;;5.63;5.13;;;17.30;98.60;;;;;;4972261;28;20195;-91
2021/06/30 05:53:22;;;;;;;3.60;3.50;;;17.30;98.40;;;;;;4972041;28;20490;-92
2021/06/30 05:55:48;;;;;;;5.53;5.23;;;17.40;95.80;;;;;;4970253;28;20434;-92
2021/06/30 05:58:13;;;;;;;4.70;4.40;;;17.30;98.20;;;;;;4946541;29;20479;-93
2021/06/30 06:00:41;;;;;;;4.70;4.30;;;17.50;95.20;;;;;;4929074;29;20179;-92
2021/06/30 06:03:07;;;;;;;5.03;4.53;;;17.70;96.50;;;;;;5029320;23;20252;-90
2021/06/30 06:05:33;;;;;;;3.40;3.40;;;19.20;93.10;;;;;;4937265;29;20479;-92
2021/06/30 06:14:21;;;;;;;4.40;4.20;;;17.90;92.30;;;;;;5358581;23;20491;-93
2021/06/30 06:19:39;;;;;;;5.07;4.77;;;18.00;90.40;;;;;;4933007;29;20471;-90
2021/06/30 06:22:05;;;;;;;6.50;6.10;;;20.60;92.70;;;;;;4922412;29;20444;-91
2021/06/30 06:24:34;;;;;;;5.93;5.43;;;19.00;94.30;;;;;;5157305;23;20487;-93
2021/06/30 06:29:39;;;;;;;5.50;5.20;;;17.90;98.80;;;;;;5268801;23;20533;-91
2021/06/30 06:34:42;;;;;;;7.03;6.50;;;18.30;99.90;;;;;;5029232;23;20480;-92
2021/06/30 06:37:23;;;;;;;7.73;7.27;;;18.10;99.40;;;;;;5008391;23;20474;-91
2021/06/30 06:39:49;;;;;;;8.00;7.30;;;21.40;95.10;;;;;;5232293;23;20485;-93
2021/06/30 06:42:20;;;;;;;7.70;6.97;;;18.20;90.60;;;;;;5152259;23;20486;-92
2021/06/30 06:44:55;;;;;;;9.30;8.63;;;20.80;94.90;;;;;;4977308;28;20218;-92
2021/06/30 06:47:49;;;;;;;8.40;7.80;;;18.90;99.90;;;;;;5137652;23;20512;-92
2021/06/30 06:50:15;;;;;;;9.50;8.80;;;18.10;92.30;;;;;;4957129;28;20431;-90
2021/06/30 06:52:40;;;;;;;10.20;9.10;;;20.00;95.50;;;;;;4946819;29;20426;-91
2021/06/30 06:55:10;;;;;;;9.17;8.63;;;19.00;93.00;;;;;;4943544;29;20662;-89
2021/06/30 06:57:37;;;;;;;9.70;9.20;;;18.10;92.90;;;;;;4944002;29;20191;-88
2021/06/30 07:00:12;;;;;;;11.30;10.17;;;18.90;91.80;;;;;;4962669;29;20421;-95
2021/06/30 07:02:38;;;;;;;9.70;9.23;;;18.20;92.00;;;;;;4943323;29;20434;-89
2021/06/30 07:05:05;;;;;;;10.17;9.37;;;20.60;94.70;;;;;;4939826;29;20467;-90
2021/06/30 07:07:30;;;;;;;12.53;11.63;;;18.10;92.30;;;;;;4940133;29;20258;-90
2021/06/30 07:09:56;;;;;;;11.97;11.17;;;19.40;92.60;;;;;;4941620;29;20938;-91
2021/06/30 07:12:22;;;;;;;10.13;9.57;;;16.70;91.10;;;;;;4941226;29;20195;-90
2021/06/30 07:14:48;;;;;;;14.67;13.53;;;22.20;95.30;;;;;;4944357;29;20255;-91
2021/06/30 07:17:14;;;;;;;11.33;10.43;;;19.50;95.60;;;;;;4940060;29;20899;-90
2021/06/30 07:19:39;;;;;;;10.30;9.67;;;19.30;93.10;;;;;;4944079;29;20437;-89
2021/06/30 07:22:05;;;;;;;10.57;10.07;;;18.40;91.80;;;;;;4958639;29;20179;-92
2021/06/30 07:24:31;;;;;;;9.43;8.87;;;19.00;93.00;;;;;;4960450;29;20556;-89
2021/06/30 07:27:01;;;;;;;8.40;8.10;;;21.20;93.50;;;;;;4961050;29;20186;-92
2021/06/30 07:29:29;;;;;;;9.27;8.53;;;21.40;94.00;;;;;;4927251;29;20583;-89
2021/06/30 07:31:56;;;;;;;8.53;7.80;;;19.10;91.30;;;;;;4942090;29;20419;-89
2021/06/30 07:34:21;;;;;;;7.23;6.63;;;20.10;89.70;;;;;;4940729;29;20990;-92
2021/06/30 07:36:47;;;;;;;6.73;6.53;;;23.00;90.30;;;;;;4956953;29;20443;-91
2021/06/30 07:39:13;;;;;;;6.70;6.20;;;20.50;88.80;;;;;;4957895;29;20183;-92
2021/06/30 07:41:42;;;;;;;6.57;6.17;;;21.00;74.40;;;;;;4959612;29;20307;-92
2021/06/30 07:44:08;;;;;;;6.67;6.07;;;21.40;75.80;;;;;;4943366;29;20198;-91
2021/06/30 07:46:34;;;;;;;6.13;5.83;;;21.40;76.00;;;;;;4946260;29;20415;-91
2021/06/30 07:48:59;;;;;;;4.47;4.23;;;21.70;75.70;;;;;;4941058;29;20231;-90
2021/06/30 07:51:26;;;;;;;5.03;4.93;;;21.70;72.50;;;;;;4941468;29;20437;-91
2021/06/30 07:53:52;;;;;;;6.73;4.33;;;21.50;69.10;;;;;;4943061;29;20510;-91
2021/06/30 07:56:33;;;;;;;5.03;4.93;;;21.50;68.30;;;;;;4943783;29;20418;-90
2021/06/30 07:59:00;;;;;;;7.40;6.80;;;20.30;68.30;;;;;;4939767;29;20475;-89
2021/06/30 08:01:25;;;;;;;8.27;7.80;;;23.10;83.60;;;;;;4943294;29;20406;-89
2021/06/30 08:03:51;;;;;;;9.17;8.47;;;22.70;92.00;;;;;;4939797;29;20416;-90
2021/06/30 08:06:16;;;;;;;17.47;16.03;;;22.40;92.30;;;;;;4939431;29;20168;-91
2021/06/30 08:08:43;;;;;;;11.07;10.17;;;18.90;98.30;;;;;;4955173;29;20203;-90
2021/06/30 08:11:09;;;;;;;12.07;11.17;;;18.80;97.90;;;;;;4943092;29;20766;-92
2021/06/30 08:13:34;;;;;;;9.37;8.77;;;18.80;97.90;;;;;;4942302;29;20180;-93
2021/06/30 08:16:02;;;;;;;12.00;11.20;;;18.90;98.70;;;;;;4942876;29;20265;-92
2021/06/30 08:18:29;;;;;;;10.47;9.77;;;18.70;97.20;;;;;;4961328;29;20211;-94
2021/06/30 08:20:56;;;;;;;8.23;7.83;;;19.20;98.20;;;;;;4946131;29;20407;-92
2021/06/30 08:23:26;;;;;;;7.37;6.87;;;20.90;96.00;;;;;;4946228;29;20447;-92
2021/06/30 08:26:00;;;;;;;6.30;6.00;;;20.60;92.80;;;;;;4943431;29;20419;-92
2021/06/30 08:28:29;;;;;;;5.00;4.90;;;20.70;90.10;;;;;;4963090;29;20434;-88
2021/06/30 08:30:55;;;;;;;5.87;5.67;;;21.10;88.00;;;;;;4943207;29;20415;-90
2021/06/30 08:33:23;;;;;;;5.70;5.50;;;19.80;89.60;;;;;;4960201;29;20511;-93
2021/06/30 08:35:49;;;;;;;5.37;5.27;;;20.80;91.40;;;;;;4959727;29;20175;-92
2021/06/30 08:38:15;;;;;;;5.20;5.10;;;20.20;90.60;;;;;;4947244;29;20970;-88
2021/06/30 08:40:42;;;;;;;5.47;5.27;;;20.40;89.60;;;;;;4256586;28;10000600;-90
2021/06/30 08:43:07;;;;;;;4.53;4.43;;;20.60;87.90;;;;;;4924822;29;20427;-89
2021/06/30 08:45:38;;;;;;;4.60;4.50;;;20.40;88.50;;;;;;4938604;29;20450;-88
2021/06/30 08:48:10;;;;;;;5.10;4.90;;;19.70;87.60;;;;;;4941838;29;20246;-90
2021/06/30 08:50:40;;;;;;;4.70;4.60;;;20.10;90.80;;;;;;4940531;29;20454;-90
2021/06/30 08:53:10;;;;;;;3.50;3.50;;;20.30;87.70;;;;;;4940885;29;20469;-88
2021/06/30 08:55:43;;;;;;;3.50;3.47;;;23.20;90.80;;;;;;4935181;29;20427;-89
2021/06/30 08:58:09;;;;;;;3.30;3.27;;;20.40;76.40;;;;;;4943894;29;20463;-89
2021/06/30 09:00:35;;;;;;;3.83;3.83;;;23.60;73.30;;;;;;4939847;29;20488;-88
2021/06/30 09:03:01;;;;;;;4.60;4.40;;;24.80;74.10;;;;;;4940774;29;20179;-89
2021/06/30 09:07:56;;;;;;;2.50;2.40;;;24.60;73.30;;;;;;4943077;29;20518;-89
2021/06/30 09:10:39;;;;;;;2.30;2.27;;;24.40;67.90;;;;;;4941824;29;20424;-90
2021/06/30 09:13:09;;;;;;;1.70;1.70;;;25.20;63.50;;;;;;4943816;29;20422;-90
2021/06/30 09:15:39;;;;;;;1.93;1.83;;;26.40;58.30;;;;;;4947080;29;20411;-90
2021/06/30 09:21:25;;;;;;;1.93;1.83;;;24.00;58.20;;;;;;4945802;29;20414;-88
2021/06/30 09:24:08;;;;;;;2.30;2.20;;;22.50;57.60;;;;;;4947576;29;20479;-89
2021/06/30 09:26:48;;;;;;;2.00;2.00;;;23.10;58.90;;;;;;4600386;29;10000329;-90
2021/06/30 09:29:14;;;;;;;1.70;1.70;;;23.10;62.40;;;;;;4944244;29;20246;-88
2021/06/30 09:31:48;;;;;;;1.90;1.90;;;25.80;68.10;;;;;;4952098;29;20420;-89
2021/06/30 09:34:21;;;;;;;1.77;1.77;;;22.60;57.20;;;;;;4952058;29;20423;-88
2021/06/30 09:36:50;;;;;;;1.70;1.70;;;22.80;58.60;;;;;;4935973;29;20506;-91
2021/06/30 09:39:22;;;;;;;2.30;2.30;;;20.60;68.20;;;;;;4951083;28;20439;-90
2021/06/30 09:41:51;;;;;;;1.97;1.87;;;21.70;66.20;;;;;;4947408;29;20962;-87
2021/06/30 09:45:10;;;;;;;2.10;2.10;;;21.20;74.40;;;;;;4945995;29;20439;-91
2021/06/30 09:47:49;;;;;;;2.10;2.10;;;20.70;77.40;;;;;;4863221;29;20545;-88
2021/06/30 09:50:16;;;;;;;1.60;1.60;;;21.80;73.60;;;;;;4856598;29;20490;-88
2021/06/30 09:52:44;;;;;;;1.90;1.80;;;20.20;75.80;;;;;;4863328;29;20431;-87
2021/06/30 09:55:42;;;;;;;2.30;2.30;;;22.50;83.70;;;;;;4887949;29;20425;-85
2021/06/30 09:58:07;;;;;;;2.07;1.97;;;19.50;77.80;;;;;;4885063;29;20491;-86
2021/06/30 10:00:33;;;;;;;4.20;4.10;;;23.40;80.50;;;;;;4891041;29;20481;-86
2021/06/30 10:02:59;;;;;;;2.87;2.87;;;20.60;76.00;;;;;;4958156;28;20194;-87
2021/06/30 10:05:30;;;;;;;1.40;1.40;;;23.40;78.20;;;;;;4942566;29;20175;-87
2021/06/30 10:08:15;;;;;;;1.60;1.60;;;21.00;72.50;;;;;;4926396;29;20567;-89
2021/06/30 10:10:46;;;;;;;2.17;2.13;;;20.50;75.20;;;;;;4927054;29;20404;-89
2021/06/30 10:13:12;;;;;;;3.70;3.40;;;23.00;79.90;;;;;;4922514;29;20424;-87
2021/06/30 10:15:42;;;;;;;2.13;2.00;;;20.10;76.10;;;;;;4923726;29;20438;-91
2021/06/30 10:18:08;;;;;;;2.40;2.37;;;20.10;77.00;;;;;;4945660;29;20233;-89
2021/06/30 10:20:54;;;;;;;3.30;3.00;;;22.40;82.10;;;;;;4947290;29;20431;-89
2021/06/30 10:23:20;;;;;;;2.50;2.50;;;20.40;73.80;;;;;;4946882;29;20183;-88
2021/06/30 10:25:49;;;;;;;2.50;2.50;;;23.00;80.60;;;;;;4948795;29;20447;-89
2021/06/30 10:28:18;;;;;;;2.20;2.20;;;20.50;69.70;;;;;;4948968;29;20175;-89
2021/06/30 10:30:45;;;;;;;2.20;2.20;;;20.60;72.70;;;;;;4950531;28;20546;-88
2021/06/30 10:33:27;;;;;;;2.37;2.37;;;20.70;73.70;;;;;;4950310;29;20415;-91
2021/06/30 10:35:53;;;;;;;2.57;2.57;;;20.80;71.60;;;;;;4950284;29;20447;-89
2021/06/30 10:38:18;;;;;;;3.00;3.00;;;24.60;77.10;;;;;;4963641;29;20575;-89
2021/06/30 10:40:49;;;;;;;2.60;2.50;;;21.40;65.10;;;;;;4965076;29;20173;-87
2021/06/30 10:43:18;;;;;;;2.00;2.00;;;24.30;73.80;;;;;;4949195;29;20175;-89
2021/06/30 10:45:44;;;;;;;2.40;2.30;;;21.50;61.60;;;;;;4928303;29;20602;-87
2021/06/30 10:48:13;;;;;;;1.03;1.03;;;20.70;67.10;;;;;;4942103;29;20514;-87
2021/06/30 10:50:45;;;;;;;1.90;1.90;;;21.30;60.00;;;;;;4942017;29;20419;-87
2021/06/30 10:53:12;;;;;;;1.53;1.53;;;21.00;61.70;;;;;;4937860;29;20419;-87
2021/06/30 10:55:53;;;;;;;1.47;1.47;;;20.80;65.40;;;;;;4935043;29;20410;-86
2021/06/30 10:58:24;;;;;;;1.83;1.83;;;21.80;68.10;;;;;;4931115;29;20479;-88
2021/06/30 11:00:59;;;;;;;1.60;1.60;;;23.40;71.10;;;;;;4936430;29;20419;-89
2021/06/30 11:03:54;;;;;;;2.07;2.07;;;22.20;67.10;;;;;;4938744;29;20399;-86
2021/06/30 11:06:45;;;;;;;2.13;2.13;;;21.90;66.80;;;;;;4942678;29;20431;-91
2021/06/30 11:09:29;;;;;;;2.30;2.20;;;23.40;69.60;;;;;;4944787;29;20422;-90
2021/06/30 11:11:59;;;;;;;1.97;1.77;;;20.60;67.10;;;;;;4946644;29;20435;-91
2021/06/30 11:14:39;;;;;;;2.37;2.37;;;20.70;65.90;;;;;;4944189;29;20461;-87
2021/06/30 11:17:05;;;;;;;2.20;2.20;;;20.40;66.00;;;;;;4959690;29;20967;-87
2021/06/30 11:19:37;;;;;;;2.90;2.90;;;23.80;73.20;;;;;;4948016;29;20432;-89
2021/06/30 11:22:06;;;;;;;2.93;2.33;;;20.20;65.40;;;;;;4940388;29;20201;-88
2021/06/30 11:24:47;;;;;;;1.90;1.90;;;20.80;69.70;;;;;;4941275;29;20465;-89
2021/06/30 11:27:21;;;;;;;2.27;2.17;;;20.70;62.60;;;;;;4942110;29;20454;-90
2021/06/30 11:29:53;;;;;;;2.50;2.50;;;21.10;63.80;;;;;;4947216;29;20419;-89
2021/06/30 11:32:39;;;;;;;2.80;2.80;;;21.50;60.80;;;;;;4943693;29;20407;-90
2021/06/30 11:35:22;;;;;;;3.50;3.40;;;21.30;59.20;;;;;;4942516;29;20443;-87
2021/06/30 11:37:58;;;;;;;4.90;4.50;;;21.20;60.60;;;;;;4944651;29;20470;-87
2021/06/30 11:40:28;;;;;;;3.20;3.20;;;20.90;62.30;;;;;;4943825;29;20430;-90
2021/06/30 11:42:56;;;;;;;4.27;4.17;;;20.80;62.60;;;;;;4945979;29;20438;-88
2021/06/30 11:45:31;;;;;;;4.30;4.20;;;20.80;64.00;;;;;;4944517;29;20412;-88
2021/06/30 11:48:00;;;;;;;3.60;3.50;;;20.70;65.10;;;;;;4943442;29;20501;-89
2021/06/30 11:50:29;;;;;;;2.40;2.33;;;22.50;68.40;;;;;;4941624;29;20924;-88
2021/06/30 11:52:58;;;;;;;2.57;2.57;;;21.00;61.30;;;;;;4958516;29;20470;-90
2021/06/30 11:55:38;;;;;;;3.47;3.47;;;21.20;59.90;;;;;;4944529;29;20407;-90
2021/06/30 11:58:04;;;;;;;4.17;4.07;;;21.80;60.20;;;;;;4954003;28;20471;-90
2021/06/30 12:00:34;;;;;;;2.90;2.90;;;22.20;63.00;;;;;;4947376;29;20494;-91
2021/06/30 12:03:07;;;;;;;2.87;2.87;;;18.50;59.50;;;;;;4942030;29;21009;-90
2021/06/30 12:05:38;;;;;;;3.17;3.03;;;21.40;68.40;;;;;;4943803;29;20437;-92
2021/06/30 12:08:04;;;;;;;3.50;3.40;;;20.40;64.60;;;;;;4940689;29;20499;-89
2021/06/30 12:10:32;;;;;;;3.20;3.20;;;20.30;68.90;;;;;;4925398;29;20416;-92
2021/06/30 12:13:01;;;;;;;3.37;3.37;;;20.10;91.10;;;;;;5038033;23;20486;-88
2021/06/30 12:15:28;;;;;;;3.77;3.77;;;19.50;91.00;;;;;;4636836;28;10000261;-88
2021/06/30 12:17:59;;;;;;;4.03;3.83;;;19.50;86.10;;;;;;4965477;29;21028;-88
2021/06/30 12:20:26;;;;;;;4.30;4.20;;;19.40;87.40;;;;;;4963950;28;20439;-89
2021/06/30 12:23:02;;;;;;;2.80;2.80;;;19.00;84.60;;;;;;4966368;28;20410;-90
2021/06/30 12:25:36;;;;;;;3.70;3.43;;;19.20;86.10;;;;;;4965451;28;20441;-94
2021/06/30 12:28:07;;;;;;;4.20;4.10;;;20.70;82.80;;;;;;4965650;28;20418;-90
2021/06/30 12:30:39;;;;;;;3.70;3.60;;;19.70;84.40;;;;;;4964503;28;20422;-90
2021/06/30 12:33:14;;;;;;;4.00;3.90;;;19.80;80.30;;;;;;4966656;28;20421;-91
2021/06/30 12:35:48;;;;;;;4.10;3.90;;;20.00;79.80;;;;;;4964362;28;20494;-87
2021/06/30 12:38:31;;;;;;;4.43;4.33;;;20.30;79.20;;;;;;4964391;28;20473;-88
2021/06/30 12:41:15;;;;;;;3.57;3.57;;;20.30;79.60;;;;;;4963454;28;20418;-88
2021/06/30 12:43:41;;;;;;;2.80;2.80;;;20.40;78.70;;;;;;4962892;28;20863;-89
2021/06/30 12:46:17;;;;;;;3.43;3.43;;;20.20;78.10;;;;;;4965184;28;20434;-89
2021/06/30 12:48:43;;;;;;;3.73;3.63;;;20.00;80.40;;;;;;4961567;28;20241;-89
2021/06/30 12:51:22;;;;;;;4.10;4.00;;;19.80;82.20;;;;;;4961754;28;20418;-86
2021/06/30 12:53:48;;;;;;;4.03;3.93;;;19.60;81.00;;;;;;4966119;28;20437;-89
2021/06/30 12:56:50;;;;;;;3.70;3.70;;;19.60;81.60;;;;;;4971768;28;20415;-90
2021/06/30 12:59:18;;;;;;;4.70;4.40;;;21.30;81.80;;;;;;4966090;28;20218;-87
2021/06/30 13:01:50;;;;;;;4.30;4.20;;;19.70;81.60;;;;;;4961782;28;20422;-88
2021/06/30 13:04:16;;;;;;;4.73;4.63;;;19.60;82.30;;;;;;4958897;28;20431;-88
2021/06/30 13:06:50;;;;;;;5.93;5.53;;;19.60;83.50;;;;;;4959731;28;20414;-86
2021/06/30 13:09:17;;;;;;;6.27;5.97;;;22.60;87.90;;;;;;4961617;28;20419;-88
2021/06/30 13:11:49;;;;;;;9.20;8.60;;;19.50;83.50;;;;;;4957511;28;20525;-89
2021/06/30 13:14:16;;;;;;;8.17;7.77;;;20.00;81.30;;;;;;4962020;28;20450;-87
2021/06/30 13:17:00;;;;;;;7.10;6.70;;;19.90;81.90;;;;;;4974427;28;20433;-88
2021/06/30 13:19:45;;;;;;;6.50;6.00;;;20.30;78.70;;;;;;4978790;28;20835;-89
2021/06/30 13:22:19;;;;;;;5.67;5.37;;;19.60;75.10;;;;;;4976437;28;20409;-89
2021/06/30 13:25:01;;;;;;;6.70;6.33;;;21.00;78.20;;;;;;4990168;28;20433;-88
2021/06/30 13:35:43;;;;;;;7.63;7.10;;;20.50;73.50;;;;;;4977734;28;20420;-89
2021/06/30 13:38:31;;;;;;;7.57;7.07;;;20.10;78.50;;;;;;4993834;28;20584;-89
2021/06/30 13:41:04;;;;;;;7.07;6.60;;;20.10;76.00;;;;;;4989097;28;20464;-93
2021/06/30 13:44:04;;;;;;;;;;;;;;;;;;;;;
2021/06/30 13:49:10;;;;;;;12.23;10.37;;;19.90;79.70;;;;;;5050602;23;20474;-90
2021/06/30 13:51:42;;;;;;;8.60;8.00;;;19.70;83.10;;;;;;4958628;28;20762;-90
2021/06/30 13:56:56;;;;;;;10.10;9.27;;;19.70;80.20;;;;;;5082588;23;20495;-93
2021/06/30 13:59:26;;;;;;;11.40;10.40;;;19.30;85.70;;;;;;4951498;23;20477;-91
2021/06/30 14:07:21;;;;;;;11.90;11.00;;;19.30;82.30;;;;;;4438677;23;20512;-92
2021/06/30 14:10:09;;;;;;;11.77;10.67;;;19.40;84.50;;;;;;5360469;23;20486;-91
2021/06/30 14:12:35;;;;;;;11.40;10.60;;;19.60;80.00;;;;;;4958880;28;20930;-91
2021/06/30 14:15:17;;;;;;;11.27;10.20;;;20.00;80.90;;;;;;4973301;28;20434;-93
2021/06/30 14:17:50;;;;;;;12.57;11.47;;;23.40;79.30;;;;;;4963865;28;20485;-92
2021/06/30 14:20:46;;;;;;;13.90;12.80;;;22.30;75.90;;;;;;4955837;29;20438;-91
2021/06/30 14:26:08;;;;;;;11.23;10.33;;;20.70;76.10;;;;;;4944707;28;20439;-90
2021/06/30 14:28:44;;;;;;;11.67;10.80;;;20.80;74.80;;;;;;4972043;28;20428;-92
2021/06/30 14:31:32;;;;;;;;;;;;;;;;;;;;;
2021/06/30 14:34:07;;;;;;;8.63;8.10;;;21.10;72.30;;;;;;4969404;29;20453;-91
2021/06/30 14:36:32;;;;;;;10.50;9.80;;;22.30;74.10;;;;;;4963825;29;20425;-90
2021/06/30 14:39:05;;;;;;;8.57;8.07;;;20.60;76.30;;;;;;4947382;29;20577;-92
2021/06/30 14:41:31;;;;;;;9.10;8.13;;;22.30;76.00;;;;;;4965073;28;20170;-87
2021/06/30 14:44:18;;;;;;;10.83;9.93;;;20.10;76.90;;;;;;4953405;29;20422;-90
2021/06/30 14:47:07;;;;;;;9.90;9.27;;;21.00;81.40;;;;;;4948105;29;20182;-93
2021/06/30 14:49:39;;;;;;;11.70;10.70;;;19.80;80.30;;;;;;4972675;28;20445;-90
2021/06/30 14:52:36;;;;;;;11.27;10.57;;;22.50;81.20;;;;;;4969834;29;20429;-89
2021/06/30 14:55:11;;;;;;;11.90;9.80;;;22.60;82.60;;;;;;4954419;29;20525;-90
2021/06/30 14:57:40;;;;;;;9.80;9.13;;;19.30;85.00;;;;;;4970355;28;20454;-90
2021/06/30 15:00:32;;;;;;;10.23;9.43;;;19.20;83.70;;;;;;4953796;29;20438;-92
2021/06/30 15:02:58;;;;;;;8.80;8.30;;;19.30;81.70;;;;;;4953184;29;20485;-91
2021/06/30 15:05:24;;;;;;;13.13;12.00;;;19.30;85.50;;;;;;4965347;28;20440;-90
2021/06/30 15:07:52;;;;;;;8.57;8.00;;;19.30;84.60;;;;;;4966723;28;20434;-92
2021/06/30 15:10:43;;;;;;;8.17;7.67;;;19.30;84.10;;;;;;4950364;29;20470;-90
2021/06/30 15:13:09;;;;;;;8.67;8.00;;;19.40;84.10;;;;;;4965928;28;20422;-91
2021/06/30 15:15:35;;;;;;;8.30;7.70;;;19.40;83.40;;;;;;4967990;29;20498;-90
2021/06/30 15:18:15;;;;;;;9.30;8.70;;;19.40;83.10;;;;;;4953358;29;20485;-91
2021/06/30 15:20:44;;;;;;;9.43;8.77;;;20.00;83.10;;;;;;4967938;28;20434;-91
2021/06/30 15:23:12;;;;;;;48.37;42.17;;;19.00;89.50;;;;;;4951445;29;20452;-91
2021/06/30 15:25:42;;;;;;;13.97;12.87;;;18.90;91.30;;;;;;4971632;28;20433;-92
2021/06/30 15:28:10;;;;;;;10.57;9.50;;;18.60;90.40;;;;;;4971101;29;20501;-89
2021/06/30 15:30:36;;;;;;;7.53;7.07;;;19.80;90.50;;;;;;4971385;28;20426;-89
2021/06/30 15:33:11;;;;;;;8.27;7.67;;;18.50;91.10;;;;;;4984562;28;20749;-89
2021/06/30 15:35:39;;;;;;;8.57;7.97;;;19.30;89.50;;;;;;4966583;28;20189;-93
2021/06/30 15:38:09;;;;;;;8.97;8.37;;;18.60;90.30;;;;;;4961678;28;20458;-90
2021/06/30 15:40:35;;;;;;;8.43;7.93;;;18.70;90.70;;;;;;4955234;29;20441;-92
2021/06/30 15:43:10;;;;;;;7.47;6.93;;;18.10;90.10;;;;;;4953602;28;20438;-91
2021/06/30 15:45:39;;;;;;;7.90;7.27;;;19.10;89.60;;;;;;4969144;28;20407;-89
2021/06/30 15:48:07;;;;;;;7.90;7.13;;;20.40;86.20;;;;;;4964975;28;20421;-92
2021/06/30 15:50:37;;;;;;;7.40;6.90;;;21.50;82.60;;;;;;4949630;29;20950;-91
2021/06/30 15:53:05;;;;;;;7.47;7.07;;;19.60;83.00;;;;;;4949474;29;21087;-92
2021/06/30 15:55:31;;;;;;;6.50;6.20;;;19.10;81.50;;;;;;4948815;28;20522;-91
2021/06/30 15:57:57;;;;;;;6.10;5.73;;;19.80;80.60;;;;;;4955489;28;20481;-89
2021/06/30 16:00:29;;;;;;;7.20;6.80;;;20.10;80.10;;;;;;4982604;28;20229;-92
2021/06/30 16:03:21;;;;;;;6.90;6.40;;;19.90;80.10;;;;;;4971036;28;20226;-92
2021/06/30 16:05:58;;;;;;;7.30;6.80;;;21.70;79.20;;;;;;4960004;28;20696;-93
2021/06/30 16:08:32;;;;;;;6.03;5.73;;;20.60;76.60;;;;;;4971984;28;20421;-93
2021/06/30 16:11:00;;;;;;;6.70;6.20;;;20.10;78.40;;;;;;4967414;28;20483;-93
2021/06/30 16:13:25;;;;;;;5.90;5.60;;;20.00;76.20;;;;;;4950665;29;20477;-90
2021/06/30 16:15:58;;;;;;;10.87;10.07;;;20.20;76.40;;;;;;4952774;29;20414;-91
2021/06/30 16:18:26;;;;;;;6.90;6.50;;;19.80;78.00;;;;;;4990033;28;20260;-91
2021/06/30 16:20:53;;;;;;;7.10;6.67;;;19.60;78.60;;;;;;4974872;28;20410;-91
2021/06/30 16:23:19;;;;;;;4.73;4.40;;;19.50;80.30;;;;;;4967097;28;20427;-89
2021/06/30 16:25:53;;;;;;;5.33;5.13;;;19.50;76.00;;;;;;4595802;29;9999842;-91
2021/06/30 16:28:19;;;;;;;6.17;5.57;;;19.50;77.10;;;;;;4933497;29;20358;-93
2021/06/30 16:30:46;;;;;;;5.30;5.00;;;19.60;77.20;;;;;;4948064;29;20499;-90
2021/06/30 16:33:18;;;;;;;4.53;4.43;;;19.80;75.00;;;;;;4950874;29;20443;-93
2021/06/30 16:35:45;;;;;;;5.77;5.20;;;19.60;78.00;;;;;;4951981;29;20435;-92
2021/06/30 16:38:11;;;;;;;4.97;4.73;;;19.50;78.40;;;;;;4948496;29;20467;-89
2021/06/30 16:40:52;;;;;;;6.33;5.90;;;18.30;76.60;;;;;;4936159;29;20451;-94
2021/06/30 16:43:54;;;;;;;5.23;5.03;;;22.30;78.60;;;;;;4938028;29;20438;-93
2021/06/30 16:46:22;;;;;;;6.63;5.90;;;19.70;75.80;;;;;;4948461;29;20450;-93
2021/06/30 16:48:50;;;;;;;8.07;7.67;;;19.00;79.40;;;;;;4934974;29;20438;-91
2021/06/30 16:51:22;;;;;;;6.37;6.00;;;19.00;79.40;;;;;;4951511;29;20423;-91
2021/06/30 16:54:16;;;;;;;;;;;;;;;;;;;;;
2021/06/30 16:56:50;;;;;;;5.07;4.97;;;18.80;82.00;;;;;;4948935;29;20510;-93
2021/06/30 16:59:18;;;;;;;3.67;3.57;;;18.60;79.00;;;;;;4936473;29;20475;-90
2021/06/30 17:01:45;;;;;;;3.90;3.70;;;18.50;81.80;;;;;;4951772;29;20466;-90
2021/06/30 17:04:14;;;;;;;4.37;3.97;;;18.50;82.30;;;;;;4965287;23;20480;-92
2021/06/30 17:07:05;;;;;;;4.07;3.87;;;18.60;83.00;;;;;;4931593;29;20505;-91
2021/06/30 17:09:57;;;;;;;4.13;3.93;;;18.60;82.80;;;;;;4900850;29;20488;-90
2021/06/30 17:12:28;;;;;;;4.13;4.03;;;18.60;82.90;;;;;;4916699;29;20493;-90
2021/06/30 17:15:08;;;;;;;4.90;4.70;;;18.60;82.30;;;;;;4931605;29;20469;-89
2021/06/30 17:17:59;;;;;;;5.27;4.97;;;21.70;83.60;;;;;;4917304;29;20507;-90
2021/06/30 17:20:34;;;;;;;3.80;3.60;;;21.10;82.00;;;;;;4917395;29;20465;-91
2021/06/30 17:23:11;;;;;;;4.40;4.27;;;18.80;82.20;;;;;;4917066;29;20437;-90
2021/06/30 17:25:41;;;;;;;6.37;5.80;;;18.50;82.90;;;;;;4934426;29;20408;-92
2021/06/30 17:28:14;;;;;;;5.57;5.20;;;18.40;83.70;;;;;;4919193;29;20771;-92
2021/06/30 17:30:45;;;;;;;6.17;5.77;;;21.50;85.50;;;;;;4914436;29;20449;-91
2021/06/30 17:33:30;;;;;;;5.73;5.40;;;18.30;88.10;;;;;;4913794;29;20408;-92
2021/06/30 17:36:02;;;;;;;6.30;5.70;;;18.10;81.70;;;;;;4889313;29;20416;-91
2021/06/30 17:39:26;;;;;;;5.10;4.90;;;18.40;82.30;;;;;;4881076;29;20561;-91
2021/06/30 17:42:27;;;;;;;4.30;4.20;;;21.20;86.40;;;;;;4897477;29;20493;-92
2021/06/30 17:45:26;;;;;;;10.00;9.10;;;21.20;87.50;;;;;;4895482;29;20421;-93